Time;durP1;ratioP1;P1;durP2;ratioP2;P2;SDS_P1;SDS_P2;PMS_P1;PMS_P2;Temp;Humidity;BMP_temperature;BMP_pressure;BME280_temperature;BME280_humidity;BME280_pressure;Samples;Min_cycle;Max_cycle;Signal;HPM_P1;HPM_P2
2024/01/22 00:01:35;;;;;;;8.38;4.50;;;7.20;91.10;;;;;;5127008;27;20067;-80
2024/01/22 00:04:01;;;;;;;11.05;4.13;;;7.50;91.20;;;;;;5114087;27;20038;-80
2024/01/22 00:06:27;;;;;;;9.95;5.10;;;7.20;91.10;;;;;;5128721;27;20043;-80
2024/01/22 00:08:54;;;;;;;7.45;4.15;;;7.20;91.30;;;;;;5125491;27;20569;-80
2024/01/22 00:11:20;;;;;;;9.52;4.95;;;7.20;91.30;;;;;;5134677;27;20066;-80
2024/01/22 00:13:46;;;;;;;10.77;4.90;;;7.20;91.20;;;;;;5118676;28;20027;-80
2024/01/22 00:16:12;;;;;;;7.05;4.25;;;7.30;91.20;;;;;;5121846;27;20107;-81
2024/01/22 00:18:38;;;;;;;8.10;4.22;;;7.30;91.20;;;;;;5132516;27;20050;-80
2024/01/22 00:21:04;;;;;;;8.32;4.38;;;7.30;91.20;;;;;;5128237;28;20046;-80
2024/01/22 00:23:30;;;;;;;7.53;4.40;;;7.40;91.30;;;;;;5124887;27;20063;-81
2024/01/22 00:25:55;;;;;;;7.82;4.43;;;7.40;91.50;;;;;;5131849;27;20046;-81
2024/01/22 00:28:21;;;;;;;9.07;4.80;;;7.40;91.30;;;;;;5124150;28;20045;-81
2024/01/22 00:30:47;;;;;;;8.25;4.18;;;7.40;91.30;;;;;;5135805;28;20044;-80
2024/01/22 00:33:12;;;;;;;7.40;4.43;;;7.40;91.30;;;;;;5127108;27;20043;-80
2024/01/22 00:35:38;;;;;;;8.27;4.13;;;7.50;91.30;;;;;;5137079;27;20101;-80
2024/01/22 00:38:04;;;;;;;6.93;4.32;;;7.50;91.40;;;;;;5124376;28;20075;-80
2024/01/22 00:40:29;;;;;;;5.75;4.15;;;7.50;91.40;;;;;;5149090;27;20054;-86
2024/01/22 00:42:55;;;;;;;6.70;4.45;;;7.50;91.30;;;;;;5106673;27;20445;-86
2024/01/22 00:45:20;;;;;;;9.35;4.10;;;7.50;91.40;;;;;;5122531;27;20114;-86
2024/01/22 00:47:46;;;;;;;5.82;3.75;;;7.50;91.40;;;;;;5124869;27;20039;-86
2024/01/22 00:50:12;;;;;;;8.38;3.92;;;7.60;91.40;;;;;;5108748;27;20042;-86
2024/01/22 00:52:37;;;;;;;7.22;3.95;;;7.60;91.40;;;;;;5104375;27;20027;-86
2024/01/22 00:55:03;;;;;;;9.10;3.85;;;7.60;91.30;;;;;;5117373;27;20039;-86
2024/01/22 00:57:29;;;;;;;8.90;3.47;;;7.70;91.30;;;;;;5122560;27;20039;-86
2024/01/22 00:59:54;;;;;;;8.60;3.75;;;7.70;91.40;;;;;;5108878;27;20392;-85
2024/01/22 01:02:21;;;;;;;9.63;3.80;;;7.70;91.30;;;;;;5122491;27;20034;-86
2024/01/22 01:04:47;;;;;;;9.40;3.67;;;7.80;91.30;;;;;;5117908;27;20063;-86
2024/01/22 01:07:12;;;;;;;8.60;3.80;;;7.80;91.30;;;;;;5109533;27;20069;-85
2024/01/22 01:09:38;;;;;;;6.25;4.00;;;8.50;91.50;;;;;;5101288;28;20032;-85
2024/01/22 01:12:04;;;;;;;7.07;3.83;;;7.90;91.30;;;;;;5120589;27;20043;-85
2024/01/22 01:14:30;;;;;;;8.27;4.10;;;7.90;91.30;;;;;;5122121;27;20057;-85
2024/01/22 01:16:55;;;;;;;7.32;4.03;;;7.90;91.20;;;;;;5105543;27;20031;-85
2024/01/22 01:19:21;;;;;;;5.97;4.03;;;8.00;91.20;;;;;;5097517;27;20084;-85
2024/01/22 01:21:46;;;;;;;7.15;3.60;;;8.00;91.40;;;;;;5115345;27;20506;-87
2024/01/22 01:24:12;;;;;;;6.47;4.05;;;8.10;91.20;;;;;;5109539;27;20059;-85
2024/01/22 01:26:41;;;;;;;9.02;3.65;;;8.10;91.10;;;;;;5121871;27;20035;-85
2024/01/22 01:29:08;;;;;;;5.95;3.50;;;8.10;91.20;;;;;;5119589;27;20045;-85
2024/01/22 01:31:34;;;;;;;7.13;3.70;;;8.20;91.20;;;;;;5103635;27;20038;-86
2024/01/22 01:33:59;;;;;;;5.65;3.60;;;8.70;91.30;;;;;;5124823;27;20494;-86
2024/01/22 01:36:25;;;;;;;9.30;4.43;;;8.20;91.20;;;;;;5105510;28;20555;-85
2024/01/22 01:38:50;;;;;;;9.77;4.28;;;8.30;91.20;;;;;;5105390;27;20035;-85
2024/01/22 01:41:16;;;;;;;6.55;3.67;;;8.30;91.30;;;;;;5120708;27;20038;-85
2024/01/22 01:43:41;;;;;;;5.82;4.00;;;8.30;91.20;;;;;;5104833;27;20106;-86
2024/01/22 01:46:07;;;;;;;8.82;4.25;;;8.30;91.20;;;;;;5124815;27;20070;-81
2024/01/22 01:48:35;;;;;;;9.55;4.40;;;8.40;91.40;;;;;;5136199;27;20035;-81
2024/01/22 01:51:01;;;;;;;6.95;4.05;;;8.40;91.40;;;;;;5116293;28;20066;-81
2024/01/22 01:53:27;;;;;;;9.88;4.25;;;8.40;91.40;;;;;;5125456;27;20072;-81
2024/01/22 01:55:53;;;;;;;9.88;4.30;;;8.40;91.50;;;;;;5125752;27;20048;-81
2024/01/22 01:58:21;;;;;;;6.90;3.88;;;8.40;91.50;;;;;;5123694;27;20035;-82
2024/01/22 02:00:49;;;;;;;5.47;3.97;;;8.50;91.60;;;;;;5128412;27;20027;-81
2024/01/22 02:03:15;;;;;;;9.27;4.38;;;8.50;91.60;;;;;;5135198;27;20031;-81
2024/01/22 02:05:41;;;;;;;10.13;4.47;;;8.50;91.60;;;;;;5124494;27;20096;-81
2024/01/22 02:08:06;;;;;;;9.32;4.70;;;8.50;91.70;;;;;;5119662;27;20063;-81
2024/01/22 02:10:32;;;;;;;11.60;3.78;;;8.50;91.70;;;;;;5123980;27;20031;-81
2024/01/22 02:12:57;;;;;;;6.88;3.58;;;8.60;91.80;;;;;;5105229;27;20075;-81
2024/01/22 02:15:23;;;;;;;5.68;3.85;;;8.50;91.80;;;;;;5107043;28;20038;-81
2024/01/22 02:17:49;;;;;;;12.13;4.95;;;8.60;92.00;;;;;;5118556;27;20031;-81
2024/01/22 02:20:14;;;;;;;9.25;4.60;;;8.60;92.00;;;;;;5135512;27;20023;-81
2024/01/22 02:22:40;;;;;;;6.93;4.18;;;8.60;92.00;;;;;;5146498;27;20087;-81
2024/01/22 02:25:06;;;;;;;7.18;4.03;;;8.60;92.00;;;;;;5118951;27;20084;-81
2024/01/22 02:27:32;;;;;;;6.20;3.38;;;8.60;92.00;;;;;;5124754;27;20042;-82
2024/01/22 02:29:57;;;;;;;6.68;3.95;;;8.60;92.20;;;;;;5136051;27;20083;-81
2024/01/22 02:32:23;;;;;;;7.15;3.58;;;8.70;92.20;;;;;;5137396;28;20113;-81
2024/01/22 02:34:48;;;;;;;7.43;3.58;;;8.70;92.20;;;;;;5113395;28;20038;-81
2024/01/22 02:37:15;;;;;;;7.25;3.65;;;8.70;92.30;;;;;;5123475;28;20047;-81
2024/01/22 02:39:41;;;;;;;5.20;3.38;;;8.70;92.30;;;;;;5112362;28;20066;-81
2024/01/22 02:42:06;;;;;;;6.65;3.80;;;8.70;92.30;;;;;;5111925;28;20031;-81
2024/01/22 02:44:35;;;;;;;7.68;3.97;;;8.70;92.40;;;;;;5119880;28;20039;-82
2024/01/22 02:47:01;;;;;;;9.65;3.92;;;8.70;92.40;;;;;;5128926;28;20035;-82
2024/01/22 02:49:28;;;;;;;9.20;3.65;;;8.80;92.40;;;;;;5120738;28;20394;-81
2024/01/22 02:51:53;;;;;;;5.35;3.40;;;8.70;92.50;;;;;;5120711;28;20031;-82
2024/01/22 02:54:19;;;;;;;6.75;3.50;;;8.80;92.50;;;;;;5124912;28;20168;-82
2024/01/22 02:56:45;;;;;;;5.95;3.17;;;8.80;92.50;;;;;;5128902;27;20051;-82
2024/01/22 02:59:10;;;;;;;10.77;3.60;;;8.80;92.50;;;;;;5130124;27;20101;-82
2024/01/22 03:01:39;;;;;;;8.05;3.95;;;8.80;92.60;;;;;;5131593;27;20050;-82
2024/01/22 03:04:04;;;;;;;11.45;3.97;;;8.80;92.60;;;;;;5120123;28;20031;-82
2024/01/22 03:06:30;;;;;;;7.32;3.58;;;9.10;92.70;;;;;;5129920;27;20042;-82
2024/01/22 03:08:57;;;;;;;6.90;3.40;;;8.80;92.60;;;;;;5126080;27;20031;-82
2024/01/22 03:11:23;;;;;;;5.65;3.22;;;8.80;92.70;;;;;;5127200;27;20054;-82
2024/01/22 03:13:48;;;;;;;6.50;3.33;;;8.80;92.70;;;;;;5127837;27;20039;-82
2024/01/22 03:16:14;;;;;;;5.38;3.63;;;9.40;92.90;;;;;;5124584;27;20040;-82
2024/01/22 03:18:40;;;;;;;8.82;3.40;;;8.80;92.80;;;;;;5132625;27;20080;-82
2024/01/22 03:21:06;;;;;;;7.53;3.55;;;8.80;92.80;;;;;;5130525;27;20027;-82
2024/01/22 03:23:32;;;;;;;7.65;3.58;;;8.80;92.80;;;;;;5119287;28;20036;-82
2024/01/22 03:25:58;;;;;;;8.43;3.50;;;8.90;92.80;;;;;;5133727;27;20035;-82
2024/01/22 03:28:23;;;;;;;7.00;3.40;;;9.00;92.90;;;;;;5131350;27;20043;-82
2024/01/22 03:30:49;;;;;;;5.32;3.00;;;8.90;92.90;;;;;;5129432;27;20109;-82
2024/01/22 03:33:15;;;;;;;7.53;3.85;;;8.90;93.00;;;;;;5109636;28;20480;-82
2024/01/22 03:35:41;;;;;;;6.38;3.53;;;8.90;93.00;;;;;;5127093;27;20051;-82
2024/01/22 03:38:06;;;;;;;6.80;3.38;;;8.90;93.00;;;;;;5124720;28;20043;-82
2024/01/22 03:40:36;;;;;;;6.65;3.20;;;8.90;93.00;;;;;;5131170;27;20038;-82
2024/01/22 03:43:02;;;;;;;6.90;3.83;;;8.90;93.10;;;;;;5133416;27;20069;-82
2024/01/22 03:45:27;;;;;;;5.80;3.47;;;8.90;93.10;;;;;;5134567;27;20031;-82
2024/01/22 03:47:53;;;;;;;6.65;3.60;;;9.10;93.20;;;;;;5134731;27;20441;-82
2024/01/22 03:50:19;;;;;;;6.00;3.10;;;8.90;93.20;;;;;;5118174;28;20059;-82
2024/01/22 03:52:50;;;;;;;6.32;3.83;;;8.90;93.20;;;;;;5139070;27;20038;-83
2024/01/22 03:55:16;;;;;;;6.10;3.50;;;8.90;93.20;;;;;;5119896;28;20032;-82
2024/01/22 03:57:41;;;;;;;7.22;3.15;;;8.90;93.30;;;;;;5143180;27;20035;-82
2024/01/22 04:00:07;;;;;;;6.65;3.40;;;9.00;93.30;;;;;;5120063;28;20092;-83
2024/01/22 04:02:33;;;;;;;4.85;3.30;;;9.00;93.50;;;;;;5133440;27;20071;-83
2024/01/22 04:04:59;;;;;;;5.50;3.25;;;9.00;93.50;;;;;;5128867;27;20038;-83
2024/01/22 04:07:25;;;;;;;8.18;3.67;;;9.00;93.50;;;;;;5134253;27;20071;-83
2024/01/22 04:09:50;;;;;;;6.03;3.33;;;9.00;93.50;;;;;;5134983;27;20035;-82
2024/01/22 04:12:19;;;;;;;4.43;3.22;;;9.00;93.50;;;;;;5145038;27;20057;-82
2024/01/22 04:14:45;;;;;;;5.68;3.22;;;9.00;93.50;;;;;;5132817;27;20043;-81
2024/01/22 04:17:13;;;;;;;5.40;3.00;;;9.00;93.50;;;;;;5138437;27;20061;-81
2024/01/22 04:19:41;;;;;;;4.65;2.70;;;9.00;93.60;;;;;;5125015;27;20413;-82
2024/01/22 04:22:07;;;;;;;6.13;2.92;;;9.00;93.60;;;;;;5140580;27;20084;-81
2024/01/22 04:24:34;;;;;;;6.47;2.83;;;9.10;93.60;;;;;;5127686;28;20043;-82
2024/01/22 04:26:59;;;;;;;5.57;2.70;;;9.10;93.70;;;;;;5113029;28;20028;-82
2024/01/22 04:29:25;;;;;;;4.75;3.00;;;9.10;93.70;;;;;;5133736;27;20435;-82
2024/01/22 04:31:51;;;;;;;7.65;3.30;;;9.10;93.80;;;;;;5112089;27;20069;-82
2024/01/22 04:34:16;;;;;;;4.22;2.58;;;9.10;93.80;;;;;;5121977;27;20095;-82
2024/01/22 04:36:42;;;;;;;3.88;2.83;;;9.20;94.00;;;;;;5131611;27;20051;-82
2024/01/22 04:39:08;;;;;;;4.82;2.88;;;9.20;93.80;;;;;;5113081;27;20105;-82
2024/01/22 04:41:33;;;;;;;4.13;2.83;;;9.20;93.90;;;;;;5115120;28;20031;-82
2024/01/22 04:43:59;;;;;;;4.63;3.00;;;9.30;93.90;;;;;;5129420;27;20038;-82
2024/01/22 04:46:25;;;;;;;6.80;2.78;;;9.20;93.90;;;;;;5129570;27;20044;-82
2024/01/22 04:48:50;;;;;;;5.72;2.53;;;9.20;93.90;;;;;;5125347;27;20036;-82
2024/01/22 04:51:16;;;;;;;8.15;3.28;;;9.30;94.00;;;;;;5124476;27;20031;-82
2024/01/22 04:53:41;;;;;;;3.80;2.22;;;9.30;94.00;;;;;;5127797;27;20494;-82
2024/01/22 04:56:07;;;;;;;3.90;2.35;;;9.30;94.00;;;;;;5115378;27;20097;-82
2024/01/22 04:58:33;;;;;;;3.58;2.30;;;9.30;94.10;;;;;;5126455;27;20092;-82
2024/01/22 05:00:59;;;;;;;3.97;2.60;;;9.40;94.10;;;;;;5106229;27;20032;-82
2024/01/22 05:03:24;;;;;;;3.30;2.25;;;9.40;94.20;;;;;;5103288;28;20059;-83
2024/01/22 05:05:50;;;;;;;3.30;2.17;;;9.40;94.20;;;;;;5122196;27;20080;-83
2024/01/22 05:08:15;;;;;;;3.33;2.10;;;9.40;94.20;;;;;;5122612;27;20036;-82
2024/01/22 05:10:41;;;;;;;4.22;1.98;;;9.40;94.20;;;;;;5110000;28;20032;-82
2024/01/22 05:13:06;;;;;;;4.32;1.80;;;9.50;94.30;;;;;;5127339;27;20044;-82
2024/01/22 05:15:32;;;;;;;5.68;1.80;;;9.50;94.30;;;;;;5123073;27;20044;-83
2024/01/22 05:17:58;;;;;;;2.75;1.73;;;9.50;94.30;;;;;;5103294;27;20448;-83
2024/01/22 05:20:23;;;;;;;4.25;1.60;;;9.60;94.40;;;;;;5117905;27;20073;-82
2024/01/22 05:22:49;;;;;;;1.88;1.20;;;9.60;94.40;;;;;;5114526;27;20110;-83
2024/01/22 05:25:15;;;;;;;2.72;1.55;;;9.60;94.40;;;;;;5127344;27;20031;-82
2024/01/22 05:27:45;;;;;;;2.38;1.42;;;9.70;94.40;;;;;;5130265;27;20043;-82
2024/01/22 05:30:11;;;;;;;2.80;1.40;;;9.70;94.40;;;;;;5112610;27;20038;-83
2024/01/22 05:32:36;;;;;;;4.35;1.40;;;9.70;94.40;;;;;;5127611;27;20117;-82
2024/01/22 05:35:02;;;;;;;1.42;1.20;;;9.80;94.40;;;;;;5129438;27;20039;-83
2024/01/22 05:37:28;;;;;;;3.03;1.38;;;9.80;94.50;;;;;;5139604;27;20111;-83
2024/01/22 05:39:53;;;;;;;1.70;1.10;;;9.80;94.40;;;;;;5133614;27;20091;-82
2024/01/22 05:42:19;;;;;;;2.05;1.05;;;9.90;94.40;;;;;;5129824;27;20103;-83
2024/01/22 05:44:44;;;;;;;4.22;1.48;;;10.50;94.60;;;;;;5126929;27;20035;-83
2024/01/22 05:47:10;;;;;;;2.38;0.88;;;10.00;94.40;;;;;;5128381;27;20039;-83
2024/01/22 05:49:35;;;;;;;3.13;1.00;;;10.00;94.40;;;;;;5116093;27;20084;-83
2024/01/22 05:52:01;;;;;;;2.42;1.48;;;10.00;94.40;;;;;;5126877;27;20039;-83
2024/01/22 05:54:27;;;;;;;3.97;1.10;;;10.10;94.40;;;;;;5120326;27;20141;-83
2024/01/22 05:56:56;;;;;;;1.63;0.77;;;10.10;94.30;;;;;;5108275;27;20041;-82
2024/01/22 05:59:21;;;;;;;3.58;0.80;;;10.90;94.50;;;;;;5116078;27;20453;-83
2024/01/22 06:01:49;;;;;;;3.28;0.70;;;10.30;94.30;;;;;;5131247;28;20039;-82
2024/01/22 06:04:15;;;;;;;3.22;1.00;;;10.20;94.20;;;;;;5129190;27;20032;-82
2024/01/22 06:06:42;;;;;;;1.52;0.60;;;10.80;94.30;;;;;;5106129;27;20030;-82
2024/01/22 06:09:07;;;;;;;4.28;0.90;;;10.60;94.20;;;;;;5136355;27;20039;-82
2024/01/22 06:11:33;;;;;;;1.52;0.60;;;10.60;94.10;;;;;;5150982;27;20041;-82
2024/01/22 06:13:58;;;;;;;2.20;0.63;;;10.50;94.00;;;;;;5111778;27;20039;-82
2024/01/22 06:16:24;;;;;;;2.65;1.13;;;11.10;94.20;;;;;;5128604;27;20043;-82
2024/01/22 06:18:50;;;;;;;3.78;1.10;;;10.90;94.10;;;;;;5125033;27;20061;-82
2024/01/22 06:21:17;;;;;;;4.15;1.10;;;10.50;93.90;;;;;;5126193;27;20035;-82
2024/01/22 06:23:42;;;;;;;1.45;0.68;;;10.50;93.80;;;;;;5113302;27;20031;-82
2024/01/22 06:26:09;;;;;;;2.20;0.95;;;10.50;93.80;;;;;;5127233;27;20451;-82
2024/01/22 06:28:34;;;;;;;1.95;0.90;;;10.60;93.80;;;;;;5128658;27;20046;-82
2024/01/22 06:31:00;;;;;;;5.15;0.90;;;10.60;93.80;;;;;;5110217;27;20063;-83
2024/01/22 06:33:26;;;;;;;3.33;0.90;;;10.60;93.70;;;;;;5111032;28;20044;-82
2024/01/22 06:35:51;;;;;;;1.65;0.80;;;10.60;93.70;;;;;;5116584;28;20391;-82
2024/01/22 06:38:17;;;;;;;3.60;0.80;;;11.30;93.90;;;;;;5120882;28;20036;-82
2024/01/22 06:40:46;;;;;;;5.60;1.20;;;10.60;93.70;;;;;;5124162;28;20047;-82
2024/01/22 06:43:13;;;;;;;2.00;0.90;;;10.60;93.70;;;;;;5128415;28;20031;-82
2024/01/22 06:45:39;;;;;;;3.88;1.20;;;10.70;93.70;;;;;;5122286;28;20032;-82
2024/01/22 06:48:05;;;;;;;6.00;1.77;;;10.70;93.70;;;;;;5108750;28;20038;-82
2024/01/22 06:50:30;;;;;;;7.93;2.13;;;10.60;93.60;;;;;;5124302;28;20045;-82
2024/01/22 06:52:56;;;;;;;9.18;2.22;;;11.00;93.80;;;;;;5119840;28;20035;-82
2024/01/22 06:55:23;;;;;;;6.35;2.20;;;11.20;93.80;;;;;;5123665;28;20078;-82
2024/01/22 06:57:49;;;;;;;10.45;2.75;;;10.60;93.70;;;;;;5123582;28;20039;-82
2024/01/22 07:00:19;;;;;;;14.15;2.35;;;10.60;93.60;;;;;;5124576;27;20039;-82
2024/01/22 07:02:45;;;;;;;11.85;2.47;;;10.60;93.70;;;;;;5127022;28;20042;-82
2024/01/22 07:05:11;;;;;;;15.88;3.83;;;10.60;93.70;;;;;;5105560;28;20421;-82
2024/01/22 07:07:38;;;;;;;14.65;2.88;;;10.70;93.70;;;;;;5111379;28;20042;-82
2024/01/22 07:10:08;;;;;;;13.80;3.50;;;10.70;93.80;;;;;;5127355;28;20039;-82
2024/01/22 07:12:36;;;;;;;17.25;3.75;;;10.60;93.70;;;;;;5128689;28;20054;-82
2024/01/22 07:15:04;;;;;;;15.65;3.13;;;10.80;93.80;;;;;;5123274;28;20035;-83
2024/01/22 07:17:30;;;;;;;18.75;4.47;;;10.70;93.70;;;;;;5126912;28;20039;-82
2024/01/22 07:19:56;;;;;;;13.13;3.13;;;10.60;93.70;;;;;;5135456;27;20382;-82
2024/01/22 07:22:22;;;;;;;15.63;3.22;;;10.70;93.70;;;;;;5122411;28;20040;-82
2024/01/22 07:24:50;;;;;;;16.35;3.28;;;10.70;93.70;;;;;;5129960;27;20520;-83
2024/01/22 07:27:16;;;;;;;15.90;3.35;;;10.90;93.70;;;;;;5106231;27;20097;-83
2024/01/22 07:29:42;;;;;;;19.00;4.65;;;10.70;93.60;;;;;;5123302;28;20031;-83
2024/01/22 07:32:09;;;;;;;17.42;3.88;;;10.70;93.60;;;;;;5121970;28;20044;-83
2024/01/22 07:34:34;;;;;;;15.80;3.53;;;10.70;93.60;;;;;;5123047;27;20114;-83
2024/01/22 07:37:00;;;;;;;18.73;4.03;;;10.60;93.60;;;;;;5126752;28;20079;-83
2024/01/22 07:39:25;;;;;;;25.05;5.15;;;10.70;93.60;;;;;;5123740;28;20042;-83
2024/01/22 07:41:51;;;;;;;19.63;4.43;;;10.70;93.60;;;;;;5120468;28;20119;-83
2024/01/22 07:44:17;;;;;;;22.73;4.50;;;10.60;93.60;;;;;;5107450;27;20054;-83
2024/01/22 07:46:43;;;;;;;24.38;4.45;;;10.60;93.60;;;;;;5111773;27;20405;-83
2024/01/22 07:49:09;;;;;;;22.40;4.35;;;10.60;93.80;;;;;;5147204;27;20087;-82
2024/01/22 07:51:35;;;;;;;25.42;6.10;;;10.70;93.70;;;;;;5124006;27;20042;-83
2024/01/22 07:54:01;;;;;;;26.15;5.10;;;10.80;93.70;;;;;;5134794;27;20031;-82
2024/01/22 07:56:28;;;;;;;21.67;4.80;;;10.60;93.60;;;;;;5138284;27;20053;-83
2024/01/22 07:58:53;;;;;;;21.35;4.47;;;10.70;93.70;;;;;;5131744;27;20064;-83
2024/01/22 08:01:19;;;;;;;23.08;4.65;;;10.70;93.70;;;;;;5144911;27;20106;-83
2024/01/22 08:03:45;;;;;;;27.75;6.13;;;11.20;93.90;;;;;;5125217;28;20032;-83
2024/01/22 08:06:11;;;;;;;28.20;5.85;;;10.60;93.70;;;;;;5109990;28;20036;-82
2024/01/22 08:08:39;;;;;;;25.23;4.38;;;10.60;93.70;;;;;;5125976;27;20043;-83
2024/01/22 08:11:04;;;;;;;21.80;4.32;;;11.20;93.90;;;;;;5126056;27;20097;-83
2024/01/22 08:13:30;;;;;;;28.30;4.55;;;10.60;93.70;;;;;;5129492;27;20043;-83
2024/01/22 08:15:55;;;;;;;29.63;5.65;;;10.60;93.70;;;;;;5124080;27;20079;-83
2024/01/22 08:18:21;;;;;;;21.98;5.00;;;10.60;93.70;;;;;;5110217;27;20046;-83
2024/01/22 08:20:47;;;;;;;27.85;5.45;;;11.10;93.90;;;;;;5131909;27;20065;-83
2024/01/22 08:23:12;;;;;;;25.15;5.13;;;10.60;93.80;;;;;;5128197;27;20035;-83
2024/01/22 08:25:38;;;;;;;31.90;5.60;;;10.60;93.80;;;;;;5113574;27;20088;-83
2024/01/22 08:28:04;;;;;;;30.45;6.10;;;10.60;93.80;;;;;;5112415;27;20032;-83
2024/01/22 08:30:29;;;;;;;36.63;6.60;;;10.60;93.80;;;;;;5130382;27;20073;-83
2024/01/22 08:33:00;;;;;;;34.80;7.82;;;10.60;93.80;;;;;;5118756;28;20036;-83
2024/01/22 08:35:26;;;;;;;38.03;7.40;;;10.80;93.90;;;;;;5119849;27;20043;-83
2024/01/22 08:37:52;;;;;;;37.67;7.13;;;11.00;94.00;;;;;;5118507;27;20050;-83
2024/01/22 08:40:21;;;;;;;43.95;8.10;;;10.60;93.80;;;;;;5128595;27;20035;-82
2024/01/22 08:42:52;;;;;;;42.15;8.02;;;10.50;93.80;;;;;;5127794;27;20452;-82
2024/01/22 08:45:19;;;;;;;42.67;8.23;;;10.60;93.90;;;;;;5109491;27;20077;-83
2024/01/22 08:47:45;;;;;;;42.17;7.93;;;11.10;94.00;;;;;;5131163;27;20118;-83
2024/01/22 08:50:15;;;;;;;45.67;9.25;;;10.50;93.80;;;;;;5130339;27;20062;-82
2024/01/22 08:52:47;;;;;;;38.92;7.93;;;10.70;93.80;;;;;;5130248;27;20035;-83
2024/01/22 08:55:14;;;;;;;41.35;8.45;;;10.50;93.70;;;;;;5108389;27;20035;-83
2024/01/22 08:57:40;;;;;;;43.05;8.77;;;10.40;93.70;;;;;;5131484;27;20110;-83
2024/01/22 09:00:10;;;;;;;32.17;7.00;;;10.40;93.60;;;;;;5129760;27;20568;-82
2024/01/22 09:02:38;;;;;;;40.03;9.00;;;10.40;93.60;;;;;;5125169;27;20063;-83
2024/01/22 09:05:05;;;;;;;41.25;9.27;;;10.40;93.60;;;;;;5112513;27;20055;-82
2024/01/22 09:07:31;;;;;;;35.67;7.75;;;10.30;93.50;;;;;;5130795;27;20073;-82
2024/01/22 09:09:57;;;;;;;40.47;8.70;;;10.30;93.50;;;;;;5133173;27;20031;-82
2024/01/22 09:12:23;;;;;;;41.60;8.55;;;10.30;93.60;;;;;;5133250;27;20070;-82
2024/01/22 09:14:48;;;;;;;36.20;7.13;;;10.30;93.40;;;;;;5115726;27;20038;-82
2024/01/22 09:17:14;;;;;;;33.70;7.80;;;10.20;93.40;;;;;;5116394;28;20040;-82
2024/01/22 09:19:40;;;;;;;35.72;8.02;;;10.20;93.40;;;;;;5132747;27;20095;-83
2024/01/22 09:22:09;;;;;;;36.60;7.57;;;10.20;93.30;;;;;;5130874;27;20038;-83
2024/01/22 09:24:37;;;;;;;35.15;7.32;;;10.20;93.30;;;;;;5138669;27;20038;-83
2024/01/22 09:27:03;;;;;;;35.95;7.38;;;10.20;93.30;;;;;;5138262;27;20023;-83
2024/01/22 09:29:29;;;;;;;39.38;7.65;;;10.10;93.30;;;;;;5121651;28;20061;-82
2024/01/22 09:31:54;;;;;;;39.60;8.48;;;10.10;93.30;;;;;;5138065;27;20027;-81
2024/01/22 09:34:21;;;;;;;41.88;8.43;;;10.10;93.20;;;;;;5145046;27;20035;-82
2024/01/22 09:36:49;;;;;;;36.42;7.43;;;10.10;93.20;;;;;;5138597;28;20059;-82
2024/01/22 09:39:14;;;;;;;37.80;7.50;;;10.00;93.40;;;;;;5122662;28;20085;-82
2024/01/22 09:41:40;;;;;;;45.70;9.43;;;10.10;93.20;;;;;;5121849;27;20039;-82
2024/01/22 09:44:07;;;;;;;38.75;8.48;;;10.00;93.10;;;;;;5111083;27;20031;-83
2024/01/22 09:46:34;;;;;;;39.88;9.52;;;10.10;93.10;;;;;;5109420;27;20066;-83
2024/01/22 09:49:00;;;;;;;48.85;8.75;;;10.10;93.10;;;;;;5144321;27;20413;-83
2024/01/22 09:51:27;;;;;;;42.10;9.98;;;10.20;93.10;;;;;;5126937;27;20035;-83
2024/01/22 09:53:59;;;;;;;47.80;10.35;;;10.00;93.00;;;;;;5115045;28;20085;-83
2024/01/22 09:56:27;;;;;;;49.72;10.38;;;10.00;93.10;;;;;;5120380;27;20520;-84
2024/01/22 09:58:57;;;;;;;49.08;10.07;;;10.00;93.10;;;;;;5119755;27;20099;-83
2024/01/22 10:01:23;;;;;;;51.90;11.35;;;10.10;93.10;;;;;;5130471;27;20067;-83
2024/01/22 10:03:51;;;;;;;45.65;10.70;;;10.10;93.10;;;;;;5127642;27;20035;-83
2024/01/22 10:06:21;;;;;;;43.78;10.10;;;10.10;93.10;;;;;;5118994;28;20072;-83
2024/01/22 10:08:56;;;;;;;50.15;10.15;;;10.00;93.00;;;;;;5129735;27;20035;-82
2024/01/22 10:11:23;;;;;;;46.95;10.95;;;10.10;93.00;;;;;;5132001;27;20035;-83
2024/01/22 10:13:50;;;;;;;45.95;10.65;;;10.10;92.90;;;;;;5131865;27;20036;-82
2024/01/22 10:16:16;;;;;;;44.63;11.38;;;10.00;92.80;;;;;;5142456;27;20051;-83
2024/01/22 10:18:56;;;;;;;39.90;10.57;;;10.00;92.80;;;;;;5130520;27;20478;-82
2024/01/22 10:21:22;;;;;;;47.40;9.68;;;10.10;92.90;;;;;;5118705;27;20521;-82
2024/01/22 10:24:04;;;;;;;44.25;8.82;;;10.50;93.00;;;;;;5124272;27;20066;-82
2024/01/22 10:26:31;;;;;;;42.47;9.73;;;10.10;93.00;;;;;;5125563;27;20123;-81
2024/01/22 10:29:21;;;;;;;49.33;9.05;;;10.00;92.80;;;;;;5121403;28;20031;-82
2024/01/22 10:31:59;;;;;;;48.25;10.30;;;10.00;92.70;;;;;;5106856;27;20398;-82
2024/01/22 10:34:28;;;;;;;43.97;9.35;;;10.00;92.70;;;;;;5127118;28;20035;-82
2024/01/22 10:37:06;;;;;;;45.22;8.93;;;10.20;92.90;;;;;;5121784;28;20055;-82
2024/01/22 10:39:32;;;;;;;49.22;9.77;;;10.00;92.60;;;;;;5126419;28;20378;-82
2024/01/22 10:42:13;;;;;;;43.28;9.65;;;10.00;92.60;;;;;;5122391;28;20035;-82
2024/01/22 10:44:44;;;;;;;40.58;9.20;;;10.00;92.60;;;;;;5124763;28;20141;-81
2024/01/22 10:47:14;;;;;;;42.35;9.00;;;10.00;92.50;;;;;;5126643;28;20421;-82
2024/01/22 10:49:43;;;;;;;40.58;8.30;;;10.20;92.50;;;;;;5126237;28;20058;-82
2024/01/22 10:52:08;;;;;;;39.58;9.63;;;10.00;92.30;;;;;;5125685;27;20035;-82
2024/01/22 10:54:35;;;;;;;36.60;8.65;;;9.90;92.10;;;;;;5114615;28;20042;-82
2024/01/22 10:57:10;;;;;;;38.60;8.00;;;9.90;92.10;;;;;;5129124;28;20406;-80
2024/01/22 10:59:40;;;;;;;37.17;8.05;;;9.90;92.10;;;;;;5128662;28;20039;-81
2024/01/22 11:02:22;;;;;;;33.50;7.45;;;9.90;92.00;;;;;;5120941;28;20531;-81
2024/01/22 11:04:52;;;;;;;42.70;10.18;;;9.90;92.00;;;;;;5121000;28;20494;-82
2024/01/22 11:07:23;;;;;;;41.88;9.93;;;9.90;92.00;;;;;;5137399;28;20037;-82
2024/01/22 11:09:52;;;;;;;38.38;8.93;;;9.90;92.00;;;;;;5130257;28;20039;-82
2024/01/22 11:12:21;;;;;;;33.78;8.05;;;9.90;92.00;;;;;;5115926;28;20059;-82
2024/01/22 11:14:47;;;;;;;43.47;9.07;;;9.90;92.00;;;;;;5142506;28;20039;-81
2024/01/22 11:17:15;;;;;;;36.47;7.88;;;9.90;91.90;;;;;;5138106;28;20101;-82
2024/01/22 11:19:40;;;;;;;34.60;7.65;;;9.90;91.90;;;;;;5142766;27;20058;-82
2024/01/22 11:22:20;;;;;;;37.95;8.25;;;9.90;92.10;;;;;;5142214;27;20040;-82
2024/01/22 11:25:01;;;;;;;35.03;8.18;;;10.10;91.90;;;;;;5125697;27;20043;-82
2024/01/22 11:27:47;;;;;;;37.47;7.80;;;10.30;91.90;;;;;;5106361;27;20042;-81
2024/01/22 11:30:24;;;;;;;34.72;7.47;;;10.00;91.70;;;;;;5105951;27;20051;-82
2024/01/22 11:32:50;;;;;;;31.25;6.85;;;10.00;91.60;;;;;;5119201;27;20041;-82
2024/01/22 11:35:37;;;;;;;34.25;6.72;;;10.00;91.60;;;;;;5112353;27;20117;-82
2024/01/22 11:38:04;;;;;;;37.80;7.93;;;10.00;91.30;;;;;;5124025;27;20039;-82
2024/01/22 11:40:52;;;;;;;39.97;9.07;;;10.00;91.20;;;;;;5115191;27;20111;-81
2024/01/22 11:43:22;;;;;;;27.65;6.32;;;10.00;90.90;;;;;;5106192;27;20061;-82
2024/01/22 11:45:51;;;;;;;31.45;7.32;;;10.10;91.00;;;;;;5123260;27;20031;-82
2024/01/22 11:48:19;;;;;;;29.52;7.05;;;10.00;90.80;;;;;;5130046;27;20032;-82
2024/01/22 11:50:58;;;;;;;30.52;6.75;;;10.00;90.70;;;;;;5109817;28;20086;-81
2024/01/22 11:53:26;;;;;;;27.17;6.72;;;10.10;90.60;;;;;;5125116;27;20040;-82
2024/01/22 11:56:05;;;;;;;33.10;7.10;;;10.10;90.50;;;;;;5115892;27;20069;-82
2024/01/22 11:58:38;;;;;;;29.17;6.82;;;10.10;90.20;;;;;;5128777;27;20509;-82
2024/01/22 12:01:08;;;;;;;27.33;7.10;;;10.00;90.30;;;;;;5122626;27;20110;-82
2024/01/22 12:03:35;;;;;;;25.80;6.88;;;10.10;90.20;;;;;;5119260;27;20040;-82
2024/01/22 12:06:08;;;;;;;29.05;6.10;;;10.10;90.00;;;;;;5097815;27;20046;-81
2024/01/22 12:08:35;;;;;;;25.25;6.40;;;10.10;89.60;;;;;;5131050;27;20474;-83
2024/01/22 12:11:14;;;;;;;26.67;5.85;;;10.10;89.40;;;;;;5121307;28;20081;-82
2024/01/22 12:13:41;;;;;;;20.95;4.95;;;10.10;88.90;;;;;;5121257;27;20036;-83
2024/01/22 12:16:22;;;;;;;25.77;6.93;;;10.10;88.80;;;;;;5132041;27;20402;-83
2024/01/22 12:18:48;;;;;;;28.92;5.13;;;10.10;88.00;;;;;;5128494;27;20043;-81
2024/01/22 12:21:14;;;;;;;27.75;5.82;;;10.10;88.20;;;;;;5123288;27;20040;-85
2024/01/22 12:23:40;;;;;;;18.95;4.13;;;10.10;88.00;;;;;;5111413;27;20040;-85
2024/01/22 12:26:19;;;;;;;25.95;5.38;;;10.10;87.70;;;;;;5120034;27;20119;-85
2024/01/22 12:28:53;;;;;;;24.73;5.45;;;10.10;87.30;;;;;;5107735;27;20124;-86
2024/01/22 12:31:22;;;;;;;29.08;5.15;;;10.80;87.70;;;;;;5108022;27;20057;-85
2024/01/22 12:33:48;;;;;;;28.10;6.70;;;10.50;87.60;;;;;;5122981;27;20092;-86
2024/01/22 12:36:15;;;;;;;24.30;5.00;;;10.90;87.80;;;;;;5123479;27;20043;-86
2024/01/22 12:38:49;;;;;;;25.08;5.85;;;10.20;87.40;;;;;;5118737;27;20031;-86
2024/01/22 12:41:15;;;;;;;28.38;6.57;;;10.10;87.00;;;;;;5109379;27;20038;-85
2024/01/22 12:43:41;;;;;;;26.05;5.50;;;10.90;87.50;;;;;;5123693;27;20506;-86
2024/01/22 12:46:16;;;;;;;27.73;5.50;;;10.10;86.70;;;;;;5126940;27;20447;-85